Time;durP1;ratioP1;P1;durP2;ratioP2;P2;SDS_P1;SDS_P2;PMS_P1;PMS_P2;Temp;Humidity;BMP_temperature;BMP_pressure;BME280_temperature;BME280_humidity;BME280_pressure;Samples;Min_cycle;Max_cycle;Signal;HPM_P1;HPM_P2
2023/01/31 00:00:25;;;;;;;5.27;3.50;;;;;;;;;;5115686;28;20196;-29
2023/01/31 00:02:52;;;;;;;6.20;3.53;;;;;;;;;;5088757;28;20204;-26
2023/01/31 00:05:19;;;;;;;5.33;3.30;;;;;;;;;;5090790;28;20197;-27
2023/01/31 00:07:47;;;;;;;5.53;3.40;;;;;;;;;;5097842;28;20215;-23
2023/01/31 00:10:14;;;;;;;5.90;3.37;;;;;;;;;;5073933;28;20667;-26
2023/01/31 00:12:43;;;;;;;5.27;3.43;;;;;;;;;;5084888;28;20304;-26
2023/01/31 00:15:12;;;;;;;8.33;3.20;;;;;;;;;;5079799;28;20221;-28
2023/01/31 00:17:39;;;;;;;4.33;3.50;;;;;;;;;;5088862;28;20200;-24
2023/01/31 00:20:07;;;;;;;4.83;3.10;;;;;;;;;;5079458;28;20246;-28
2023/01/31 00:22:34;;;;;;;7.27;3.10;;;;;;;;;;5106691;28;20217;-27
2023/01/31 00:25:01;;;;;;;3.70;2.50;;;;;;;;;;5092576;28;20214;-25
2023/01/31 00:27:28;;;;;;;5.27;3.30;;;;;;;;;;5103594;28;20208;-29
2023/01/31 00:29:57;;;;;;;5.77;3.40;;;;;;;;;;5094439;28;20205;-27
2023/01/31 00:32:25;;;;;;;5.30;3.60;;;;;;;;;;5094292;28;20235;-27
2023/01/31 00:34:53;;;;;;;4.83;3.27;;;;;;;;;;5083672;28;20222;-27
2023/01/31 00:37:20;;;;;;;4.53;3.20;;;;;;;;;;5102896;28;20203;-26
2023/01/31 00:39:47;;;;;;;5.40;2.97;;;;;;;;;;5107513;28;20214;-27
2023/01/31 00:42:15;;;;;;;5.93;3.07;;;;;;;;;;5105676;28;20255;-26
2023/01/31 00:44:42;;;;;;;7.97;3.93;;;;;;;;;;5110016;28;20207;-24
2023/01/31 00:47:10;;;;;;;5.07;3.00;;;;;;;;;;5094977;28;20200;-26
2023/01/31 00:49:37;;;;;;;5.47;3.40;;;;;;;;;;5092806;28;20197;-23
2023/01/31 00:52:05;;;;;;;6.33;3.07;;;;;;;;;;5096133;28;20217;-27
2023/01/31 00:54:33;;;;;;;6.90;3.70;;;;;;;;;;5114896;28;20219;-26
2023/01/31 00:57:00;;;;;;;4.60;3.30;;;;;;;;;;5096111;28;20204;-28
2023/01/31 00:59:27;;;;;;;6.27;3.40;;;;;;;;;;5114337;28;20196;-26
2023/01/31 01:01:54;;;;;;;5.27;2.93;;;;;;;;;;5115122;28;20223;-26
2023/01/31 01:04:22;;;;;;;6.43;3.53;;;;;;;;;;5094919;28;20227;-25
2023/01/31 01:06:50;;;;;;;5.07;3.30;;;;;;;;;;5107211;28;20200;-26
2023/01/31 01:09:17;;;;;;;7.77;3.47;;;;;;;;;;5074176;28;20215;-26
2023/01/31 01:11:44;;;;;;;7.43;3.67;;;;;;;;;;5091308;28;20230;-28
2023/01/31 01:14:11;;;;;;;6.13;3.50;;;;;;;;;;5113323;28;20208;-26
2023/01/31 01:16:39;;;;;;;6.87;3.30;;;;;;;;;;5090896;28;20226;-24
2023/01/31 01:19:07;;;;;;;5.47;3.20;;;;;;;;;;5087955;28;20209;-23
2023/01/31 01:21:38;;;;;;;5.67;2.87;;;;;;;;;;5108920;28;20247;-26
2023/01/31 01:24:06;;;;;;;3.50;2.63;;;;;;;;;;5096196;28;20212;-28
2023/01/31 01:26:34;;;;;;;4.80;3.13;;;;;;;;;;5090707;28;20200;-25
2023/01/31 01:29:01;;;;;;;9.47;3.43;;;;;;;;;;5110892;28;20211;-28
2023/01/31 01:31:29;;;;;;;5.23;3.00;;;;;;;;;;5099292;28;20232;-26
2023/01/31 01:33:57;;;;;;;4.57;2.77;;;;;;;;;;5077198;28;20217;-24
2023/01/31 01:36:26;;;;;;;8.33;3.10;;;;;;;;;;5094541;28;20204;-25
2023/01/31 01:38:54;;;;;;;4.87;3.13;;;;;;;;;;5107445;28;20188;-27
2023/01/31 01:41:22;;;;;;;2.70;2.47;;;;;;;;;;5089078;28;20227;-30
2023/01/31 01:43:50;;;;;;;7.50;3.20;;;;;;;;;;5091750;28;20196;-27
2023/01/31 01:46:20;;;;;;;6.37;3.13;;;;;;;;;;5098104;28;20276;-29
2023/01/31 01:48:49;;;;;;;3.43;2.73;;;;;;;;;;5092609;28;20200;-27
2023/01/31 01:51:18;;;;;;;6.33;3.40;;;;;;;;;;5085125;28;20226;-24
2023/01/31 01:53:46;;;;;;;8.80;3.60;;;;;;;;;;5109447;28;20265;-28
2023/01/31 01:56:17;;;;;;;5.93;3.33;;;;;;;;;;5087381;28;20196;-25
2023/01/31 01:58:47;;;;;;;4.70;3.10;;;;;;;;;;5111902;28;20199;-26
2023/01/31 02:01:15;;;;;;;6.07;3.20;;;;;;;;;;5093766;28;20236;-29
2023/01/31 02:03:43;;;;;;;5.83;2.90;;;;;;;;;;5074171;28;20662;-28
2023/01/31 02:06:10;;;;;;;4.93;2.57;;;;;;;;;;5091631;28;20208;-27
2023/01/31 02:08:38;;;;;;;3.37;2.60;;;;;;;;;;5112939;28;20199;-23
2023/01/31 02:11:09;;;;;;;4.20;2.80;;;;;;;;;;5081589;28;20221;-27
2023/01/31 02:13:38;;;;;;;6.60;2.83;;;;;;;;;;5112603;28;20329;-26
2023/01/31 02:16:06;;;;;;;4.00;2.73;;;;;;;;;;5114160;28;20214;-28
2023/01/31 02:18:33;;;;;;;7.00;2.80;;;;;;;;;;5113594;28;20227;-26
2023/01/31 02:21:15;;;;;;;5.83;2.70;;;;;;;;;;5092551;28;20225;-23
2023/01/31 02:24:06;;;;;;;7.80;3.10;;;;;;;;;;5101974;28;20192;-26
2023/01/31 02:26:45;;;;;;;5.87;2.67;;;;;;;;;;5089575;28;20204;-25
2023/01/31 02:29:28;;;;;;;4.07;2.87;;;;;;;;;;5108154;28;20203;-29
2023/01/31 02:32:14;;;;;;;5.17;3.23;;;;;;;;;;5092645;28;20236;-25
2023/01/31 02:34:45;;;;;;;5.10;2.40;;;;;;;;;;5088450;28;20218;-24
2023/01/31 02:37:18;;;;;;;3.40;2.50;;;;;;;;;;5112352;28;20199;-23
2023/01/31 02:39:50;;;;;;;5.87;2.83;;;;;;;;;;5098515;28;20212;-26
2023/01/31 02:42:23;;;;;;;4.37;2.33;;;;;;;;;;5097298;28;20226;-27
2023/01/31 02:44:58;;;;;;;4.70;2.97;;;;;;;;;;5113247;28;20199;-26
2023/01/31 02:47:28;;;;;;;6.10;2.90;;;;;;;;;;5113951;28;20191;-25
2023/01/31 02:49:58;;;;;;;5.47;2.93;;;;;;;;;;5088351;28;20205;-28
2023/01/31 02:52:29;;;;;;;5.50;2.87;;;;;;;;;;5099221;28;20230;-24
2023/01/31 02:57:46;;;;;;;4.47;2.90;;;;;;;;;;5102973;28;20203;-27
2023/01/31 03:00:14;;;;;;;3.17;2.60;;;;;;;;;;5112507;28;20206;-24
2023/01/31 03:02:41;;;;;;;4.83;2.73;;;;;;;;;;5112820;28;20214;-27
2023/01/31 03:05:12;;;;;;;5.60;3.00;;;;;;;;;;5092543;28;20200;-27
2023/01/31 03:07:39;;;;;;;4.07;2.80;;;;;;;;;;5090900;28;20200;-27
2023/01/31 03:10:21;;;;;;;5.30;2.70;;;;;;;;;;5087190;28;20202;-27
2023/01/31 03:12:52;;;;;;;8.23;3.10;;;;;;;;;;5095032;28;20291;-25
2023/01/31 03:17:30;;;;;;;7.40;3.47;;;;;;;;;;5097852;28;20542;-28
2023/01/31 03:18:19;;;;;;;5.80;2.83;;;;;;;;;;5102353;28;20595;-29
2023/01/31 03:20:50;;;;;;;8.47;3.60;;;;;;;;;;5089576;28;20220;-28
2023/01/31 03:23:19;;;;;;;6.00;3.27;;;;;;;;;;5097752;28;20196;-25
2023/01/31 03:25:47;;;;;;;6.17;2.70;;;;;;;;;;5098610;28;20668;-30
2023/01/31 03:28:16;;;;;;;4.60;3.43;;;;;;;;;;5093445;28;20208;-22
2023/01/31 03:30:47;;;;;;;7.63;2.90;;;;;;;;;;5112628;28;20227;-25
2023/01/31 03:33:17;;;;;;;3.70;2.33;;;;;;;;;;5113395;28;20184;-23
2023/01/31 03:35:46;;;;;;;7.13;3.43;;;;;;;;;;5085812;28;20677;-26
2023/01/31 03:38:17;;;;;;;5.13;3.10;;;;;;;;;;5101213;28;20196;-25
2023/01/31 03:40:48;;;;;;;8.00;2.77;;;;;;;;;;5098469;28;20217;-27
2023/01/31 03:43:20;;;;;;;6.87;2.83;;;;;;;;;;5110552;28;20667;-28
2023/01/31 03:45:49;;;;;;;9.07;2.83;;;;;;;;;;5113462;28;20188;-26
2023/01/31 03:48:18;;;;;;;4.10;2.47;;;;;;;;;;5103946;28;20205;-27
2023/01/31 03:50:48;;;;;;;6.97;3.37;;;;;;;;;;5083157;28;20225;-28
2023/01/31 03:53:19;;;;;;;6.67;2.80;;;;;;;;;;5110793;28;20193;-29
2023/01/31 03:55:49;;;;;;;6.20;3.20;;;;;;;;;;5463433;22;20224;-24
2023/01/31 03:58:19;;;;;;;6.60;3.87;;;;;;;;;;5107923;28;20256;-26
2023/01/31 04:00:48;;;;;;;6.33;3.53;;;;;;;;;;5105526;28;20223;-30
2023/01/31 04:03:18;;;;;;;7.43;2.73;;;;;;;;;;5088627;28;20266;-30
2023/01/31 04:05:45;;;;;;;5.20;3.27;;;;;;;;;;5061697;28;20671;-31
2023/01/31 04:08:12;;;;;;;6.33;2.90;;;;;;;;;;5085173;28;20215;-28
2023/01/31 04:10:41;;;;;;;4.40;3.00;;;;;;;;;;5075081;28;20221;-26
2023/01/31 04:13:08;;;;;;;4.13;2.83;;;;;;;;;;5086910;28;20204;-30
2023/01/31 04:15:35;;;;;;;7.47;2.50;;;;;;;;;;5090643;28;20278;-29
2023/01/31 04:18:02;;;;;;;4.67;2.40;;;;;;;;;;5085895;28;20212;-28
2023/01/31 04:20:29;;;;;;;4.83;2.67;;;;;;;;;;5079193;28;20643;-29
2023/01/31 04:22:58;;;;;;;9.73;3.30;;;;;;;;;;5096200;28;20201;-28
2023/01/31 04:25:36;;;;;;;6.00;3.23;;;;;;;;;;5088231;28;20295;-27
2023/01/31 04:28:05;;;;;;;7.37;3.40;;;;;;;;;;5089274;28;20197;-26
2023/01/31 04:30:32;;;;;;;4.70;3.40;;;;;;;;;;5093274;28;20534;-27
2023/01/31 04:32:59;;;;;;;4.90;3.27;;;;;;;;;;5086982;28;20574;-29
2023/01/31 04:35:26;;;;;;;4.93;2.97;;;;;;;;;;5055696;28;20226;-29
2023/01/31 04:37:53;;;;;;;5.30;2.83;;;;;;;;;;5072125;28;20201;-26
2023/01/31 04:40:20;;;;;;;4.50;2.77;;;;;;;;;;5078138;28;20206;-30
2023/01/31 04:42:47;;;;;;;3.67;2.63;;;;;;;;;;5082906;28;20214;-25
2023/01/31 04:45:16;;;;;;;7.20;3.10;;;;;;;;;;5092243;28;20196;-29
2023/01/31 04:47:43;;;;;;;3.40;2.47;;;;;;;;;;5082886;28;20216;-27
2023/01/31 04:50:11;;;;;;;3.73;2.40;;;;;;;;;;5070168;28;20654;-27
2023/01/31 04:52:38;;;;;;;4.50;2.80;;;;;;;;;;5085142;28;20232;-27
2023/01/31 04:55:05;;;;;;;3.63;2.90;;;;;;;;;;5067416;28;20241;-27
2023/01/31 04:57:32;;;;;;;5.20;2.50;;;;;;;;;;5071309;28;20209;-29
2023/01/31 05:00:00;;;;;;;4.33;3.00;;;;;;;;;;5092157;28;20205;-29
2023/01/31 05:02:28;;;;;;;4.17;3.00;;;;;;;;;;5089795;28;20713;-26
2023/01/31 05:04:55;;;;;;;3.80;3.00;;;;;;;;;;5068832;28;20197;-29
2023/01/31 05:07:22;;;;;;;3.90;2.70;;;;;;;;;;5092483;28;20224;-29
2023/01/31 05:09:49;;;;;;;7.17;3.37;;;;;;;;;;5087526;28;20204;-27
2023/01/31 05:12:16;;;;;;;9.97;3.00;;;;;;;;;;5072015;28;20221;-25
2023/01/31 05:14:43;;;;;;;6.83;2.97;;;;;;;;;;5092167;28;20228;-26
2023/01/31 05:17:11;;;;;;;3.53;2.77;;;;;;;;;;5087988;28;20651;-30
2023/01/31 05:19:41;;;;;;;5.33;2.97;;;;;;;;;;5061691;28;20201;-26
2023/01/31 05:22:08;;;;;;;9.07;3.37;;;;;;;;;;5071122;28;20238;-32
2023/01/31 05:24:36;;;;;;;6.23;3.40;;;;;;;;;;5091409;28;20306;-30
2023/01/31 05:27:03;;;;;;;8.13;2.73;;;;;;;;;;5071693;28;20200;-25
2023/01/31 05:29:31;;;;;;;4.80;2.47;;;;;;;;;;5079468;28;20202;-28
2023/01/31 05:31:59;;;;;;;5.70;3.17;;;;;;;;;;5068957;28;20225;-31
2023/01/31 05:34:27;;;;;;;6.83;3.33;;;;;;;;;;5066467;28;20209;-27
2023/01/31 05:36:56;;;;;;;5.20;2.90;;;;;;;;;;5066171;28;20725;-31
2023/01/31 05:39:23;;;;;;;6.53;3.17;;;;;;;;;;5066330;28;20228;-29
2023/01/31 05:41:51;;;;;;;7.90;3.07;;;;;;;;;;5059172;28;20312;-33
2023/01/31 05:44:18;;;;;;;7.43;2.83;;;;;;;;;;5083111;28;20720;-28
2023/01/31 05:46:46;;;;;;;2.83;2.43;;;;;;;;;;5079800;28;20197;-29
2023/01/31 05:49:13;;;;;;;7.80;3.07;;;;;;;;;;5068072;28;20201;-29
2023/01/31 05:51:40;;;;;;;7.20;3.20;;;;;;;;;;5083871;28;20228;-27
2023/01/31 05:54:09;;;;;;;6.10;3.30;;;;;;;;;;5090924;28;20220;-33
2023/01/31 05:56:37;;;;;;;5.77;3.43;;;;;;;;;;5069870;28;20348;-29
2023/01/31 05:59:05;;;;;;;4.23;2.83;;;;;;;;;;5082939;28;20205;-33
2023/01/31 06:01:32;;;;;;;6.13;2.60;;;;;;;;;;5059994;28;20217;-29
2023/01/31 06:03:59;;;;;;;5.10;3.07;;;;;;;;;;5061773;28;20232;-28
2023/01/31 06:06:26;;;;;;;6.40;3.80;;;;;;;;;;5071634;28;20200;-31
2023/01/31 06:08:53;;;;;;;3.13;2.83;;;;;;;;;;5088582;28;20203;-30
2023/01/31 06:11:21;;;;;;;5.60;2.80;;;;;;;;;;5068843;28;20232;-29
2023/01/31 06:13:49;;;;;;;6.73;3.13;;;;;;;;;;5081422;28;20205;-33
2023/01/31 06:16:16;;;;;;;4.47;2.50;;;;;;;;;;5061056;28;20221;-32
2023/01/31 06:18:43;;;;;;;4.50;2.47;;;;;;;;;;5057557;28;20305;-31
2023/01/31 06:21:10;;;;;;;6.77;3.37;;;;;;;;;;5072674;28;20229;-29
2023/01/31 06:23:38;;;;;;;4.37;2.67;;;;;;;;;;5090352;28;20204;-30
2023/01/31 06:26:05;;;;;;;5.33;2.60;;;;;;;;;;5071073;28;20202;-32
2023/01/31 06:28:33;;;;;;;4.67;2.43;;;;;;;;;;5088414;28;20203;-32
2023/01/31 06:31:06;;;;;;;5.17;2.70;;;;;;;;;;5066309;28;20225;-33
2023/01/31 06:33:33;;;;;;;6.93;2.70;;;;;;;;;;5068321;28;20197;-29
2023/01/31 06:36:00;;;;;;;5.33;2.80;;;;;;;;;;5086700;28;20221;-30
2023/01/31 06:38:27;;;;;;;6.37;2.97;;;;;;;;;;5091260;28;20201;-29
2023/01/31 06:40:54;;;;;;;4.40;2.70;;;;;;;;;;5058313;28;20218;-30
2023/01/31 06:43:22;;;;;;;6.10;3.30;;;;;;;;;;5090769;28;20201;-30
2023/01/31 06:45:50;;;;;;;6.03;2.83;;;;;;;;;;5091627;28;20208;-30
2023/01/31 06:48:18;;;;;;;4.33;2.60;;;;;;;;;;5052667;28;20198;-28
2023/01/31 06:50:45;;;;;;;5.00;3.07;;;;;;;;;;5066311;28;20292;-32
2023/01/31 06:53:12;;;;;;;6.63;5.03;;;;;;;;;;5090719;28;20217;-30
2023/01/31 06:55:40;;;;;;;6.20;2.90;;;;;;;;;;5071400;28;20245;-27
2023/01/31 06:58:07;;;;;;;6.27;2.70;;;;;;;;;;5085214;28;20204;-33
2023/01/31 07:00:34;;;;;;;6.13;2.90;;;;;;;;;;5088312;28;20204;-31
2023/01/31 07:03:02;;;;;;;7.67;2.97;;;;;;;;;;5061424;28;20213;-30
2023/01/31 07:05:29;;;;;;;5.57;2.93;;;;;;;;;;5068139;28;20200;-32
2023/01/31 07:07:56;;;;;;;6.47;2.53;;;;;;;;;;5089595;28;20205;-26
2023/01/31 07:10:24;;;;;;;7.93;3.67;;;;;;;;;;5080229;28;20208;-29
2023/01/31 07:12:51;;;;;;;3.43;2.80;;;;;;;;;;5084263;28;20211;-32
2023/01/31 07:15:18;;;;;;;3.33;2.40;;;;;;;;;;5085341;28;20205;-30
2023/01/31 07:17:45;;;;;;;8.80;2.80;;;;;;;;;;5072060;28;20722;-26
2023/01/31 07:20:14;;;;;;;9.37;2.70;;;;;;;;;;5062363;28;20212;-23
2023/01/31 07:22:41;;;;;;;5.37;3.10;;;;;;;;;;5073775;28;20214;-27
2023/01/31 07:25:08;;;;;;;5.47;2.83;;;;;;;;;;5081866;28;20678;-30
2023/01/31 07:27:36;;;;;;;3.90;2.87;;;;;;;;;;5078806;28;20210;-27
2023/01/31 07:30:03;;;;;;;6.03;2.87;;;;;;;;;;5079104;28;20205;-26
2023/01/31 07:32:30;;;;;;;5.37;3.27;;;;;;;;;;5065755;28;20225;-28
2023/01/31 07:34:57;;;;;;;4.87;2.93;;;;;;;;;;5066531;28;20205;-27
2023/01/31 07:37:26;;;;;;;6.63;3.10;;;;;;;;;;5075101;28;20227;-28
2023/01/31 07:39:53;;;;;;;6.77;3.33;;;;;;;;;;5086496;28;20197;-27
2023/01/31 07:42:20;;;;;;;7.43;3.10;;;;;;;;;;5080118;28;20307;-28
2023/01/31 07:44:47;;;;;;;6.23;3.53;;;;;;;;;;5085000;28;20215;-28
2023/01/31 07:47:15;;;;;;;7.77;2.70;;;;;;;;;;5093030;28;20227;-26
2023/01/31 07:49:42;;;;;;;8.33;2.60;;;;;;;;;;5072345;28;20213;-27
2023/01/31 07:52:09;;;;;;;6.67;2.70;;;;;;;;;;5087013;28;20230;-28
2023/01/31 07:54:37;;;;;;;3.80;2.53;;;;;;;;;;5095065;28;20205;-26
2023/01/31 07:57:04;;;;;;;4.73;3.30;;;;;;;;;;5077355;28;20221;-26
2023/01/31 07:59:32;;;;;;;4.67;3.47;;;;;;;;;;5091805;28;20946;-30
2023/01/31 08:04:43;;;;;;;8.00;3.23;;;;;;;;;;5093193;28;20223;-26
2023/01/31 08:07:10;;;;;;;4.50;3.00;;;;;;;;;;5064729;28;20209;-27
2023/01/31 08:09:39;;;;;;;7.47;3.60;;;;;;;;;;5078836;28;20202;-29
2023/01/31 08:12:12;;;;;;;4.73;3.10;;;;;;;;;;5072709;28;20235;-30
2023/01/31 08:14:39;;;;;;;8.10;3.50;;;;;;;;;;5080478;28;20561;-29
2023/01/31 08:17:07;;;;;;;5.17;3.30;;;;;;;;;;5069206;28;20217;-29
2023/01/31 08:19:34;;;;;;;5.97;2.93;;;;;;;;;;5064701;28;20197;-28
2023/01/31 08:22:01;;;;;;;5.73;3.30;;;;;;;;;;5069618;28;20231;-25
2023/01/31 08:24:29;;;;;;;4.37;2.70;;;;;;;;;;5066089;28;20204;-29
2023/01/31 08:26:57;;;;;;;4.80;2.73;;;;;;;;;;5066331;28;20280;-28
2023/01/31 08:29:25;;;;;;;5.40;2.70;;;;;;;;;;5071530;28;20208;-34
2023/01/31 08:31:52;;;;;;;6.77;3.20;;;;;;;;;;5061332;28;20612;-29
2023/01/31 08:34:20;;;;;;;7.43;2.87;;;;;;;;;;5062702;28;20240;-27
2023/01/31 08:36:47;;;;;;;8.03;2.83;;;;;;;;;;5080485;28;20271;-27
2023/01/31 08:39:14;;;;;;;9.03;3.33;;;;;;;;;;5080566;28;20300;-28
2023/01/31 08:41:41;;;;;;;8.20;2.90;;;;;;;;;;5062769;28;20221;-28
2023/01/31 08:44:12;;;;;;;5.47;4.03;;;;;;;;;;5092233;28;20209;-29
2023/01/31 08:46:40;;;;;;;6.47;2.93;;;;;;;;;;5071316;28;20196;-29
2023/01/31 08:49:09;;;;;;;5.13;2.83;;;;;;;;;;5060474;28;20685;-28
2023/01/31 08:51:36;;;;;;;8.27;3.40;;;;;;;;;;5066953;28;20222;-30
2023/01/31 08:54:03;;;;;;;5.60;3.30;;;;;;;;;;5081142;28;20197;-31
2023/01/31 08:56:30;;;;;;;6.07;3.37;;;;;;;;;;5076535;28;20224;-25
2023/01/31 08:58:57;;;;;;;3.83;2.50;;;;;;;;;;5087545;28;20193;-27
2023/01/31 09:01:26;;;;;;;5.00;2.70;;;;;;;;;;5065002;28;20232;-31
2023/01/31 09:03:56;;;;;;;6.07;3.20;;;;;;;;;;5061013;28;20566;-30
2023/01/31 09:06:25;;;;;;;4.27;2.83;;;;;;;;;;5074222;28;20192;-31
2023/01/31 09:08:53;;;;;;;4.60;2.67;;;;;;;;;;5081578;28;20201;-29
2023/01/31 09:11:20;;;;;;;4.13;3.13;;;;;;;;;;5063710;28;20220;-30
2023/01/31 09:13:50;;;;;;;5.47;3.67;;;;;;;;;;5080020;28;20274;-31
2023/01/31 09:16:17;;;;;;;7.53;3.30;;;;;;;;;;5073728;28;20221;-30
2023/01/31 09:18:45;;;;;;;5.73;2.90;;;;;;;;;;5051934;28;20904;-30
2023/01/31 09:21:14;;;;;;;7.97;2.90;;;;;;;;;;5074659;28;20246;-29
2023/01/31 09:23:42;;;;;;;7.83;3.03;;;;;;;;;;5089363;28;20284;-32
2023/01/31 09:26:09;;;;;;;5.23;2.80;;;;;;;;;;5060691;28;20293;-31
2023/01/31 09:28:36;;;;;;;5.57;2.77;;;;;;;;;;5075822;28;20204;-30
2023/01/31 09:31:04;;;;;;;6.83;3.33;;;;;;;;;;5068633;28;20221;-29
2023/01/31 09:33:31;;;;;;;5.20;2.53;;;;;;;;;;5056093;28;20205;-27
2023/01/31 09:36:01;;;;;;;8.50;3.07;;;;;;;;;;5067020;28;20201;-30
2023/01/31 09:38:28;;;;;;;4.10;2.47;;;;;;;;;;5079374;28;20201;-27
2023/01/31 09:40:55;;;;;;;3.37;2.50;;;;;;;;;;5060982;28;20229;-29
2023/01/31 09:43:25;;;;;;;6.53;3.50;;;;;;;;;;5068413;28;20208;-29
2023/01/31 09:45:53;;;;;;;6.13;2.60;;;;;;;;;;5075834;28;20212;-29
2023/01/31 09:48:21;;;;;;;7.00;2.77;;;;;;;;;;5058266;28;20206;-28
2023/01/31 09:50:50;;;;;;;4.70;2.47;;;;;;;;;;5081669;28;20216;-31
2023/01/31 09:53:21;;;;;;;5.43;2.87;;;;;;;;;;5070582;28;20202;-31
2023/01/31 09:55:51;;;;;;;4.33;2.63;;;;;;;;;;5061473;28;20245;-30
2023/01/31 09:58:24;;;;;;;5.20;2.67;;;;;;;;;;5069849;28;20280;-33
2023/01/31 10:00:57;;;;;;;4.03;2.17;;;;;;;;;;5064956;28;20228;-33
2023/01/31 10:03:32;;;;;;;4.07;2.50;;;;;;;;;;5066176;28;20209;-26
2023/01/31 10:06:04;;;;;;;4.57;2.20;;;;;;;;;;5071404;28;20201;-28
2023/01/31 10:08:40;;;;;;;5.67;2.97;;;;;;;;;;5068313;28;20202;-33
2023/01/31 10:11:11;;;;;;;9.20;2.33;;;;;;;;;;5067725;28;20220;-29
2023/01/31 10:13:41;;;;;;;6.17;2.80;;;;;;;;;;5076393;28;20205;-28
2023/01/31 10:16:14;;;;;;;5.97;2.47;;;;;;;;;;5076557;28;20209;-30
2023/01/31 10:18:43;;;;;;;7.57;2.23;;;;;;;;;;5058047;28;20198;-32
2023/01/31 10:21:13;;;;;;;5.90;2.23;;;;;;;;;;5083195;28;20228;-29
2023/01/31 10:23:44;;;;;;;5.37;2.33;;;;;;;;;;5078040;28;20201;-32
2023/01/31 10:26:14;;;;;;;6.27;2.60;;;;;;;;;;5061324;28;20197;-31
2023/01/31 10:28:43;;;;;;;5.50;1.73;;;;;;;;;;5060284;28;20210;-31
2023/01/31 10:31:13;;;;;;;5.53;2.80;;;;;;;;;;5068417;28;20225;-31
2023/01/31 10:33:44;;;;;;;7.43;3.10;;;;;;;;;;5060216;28;20202;-26
2023/01/31 10:36:14;;;;;;;2.37;1.97;;;;;;;;;;5059586;28;20210;-31
2023/01/31 10:38:49;;;;;;;4.63;2.00;;;;;;;;;;5068614;28;20198;-30
2023/01/31 10:41:19;;;;;;;4.47;2.37;;;;;;;;;;5058967;28;20230;-30
2023/01/31 10:43:49;;;;;;;7.13;2.50;;;;;;;;;;5081568;28;20196;-28
2023/01/31 10:46:16;;;;;;;6.87;2.40;;;;;;;;;;5067370;28;20201;-31
2023/01/31 10:48:44;;;;;;;6.43;1.90;;;;;;;;;;5055734;28;20210;-30
2023/01/31 10:51:20;;;;;;;2.43;1.63;;;;;;;;;;5073629;28;20319;-32
2023/01/31 10:53:58;;;;;;;5.27;2.20;;;;;;;;;;5079528;28;20189;-29
2023/01/31 10:56:28;;;;;;;5.30;2.40;;;;;;;;;;5066723;28;20208;-30
2023/01/31 10:58:56;;;;;;;4.23;1.60;;;;;;;;;;5083790;28;20197;-32
2023/01/31 11:01:23;;;;;;;5.63;2.57;;;;;;;;;;5074505;28;20236;-30
2023/01/31 11:03:50;;;;;;;6.10;2.73;;;;;;;;;;5058041;28;20202;-32
2023/01/31 11:06:18;;;;;;;4.83;2.13;;;;;;;;;;5072019;28;20201;-30
2023/01/31 11:08:47;;;;;;;8.70;2.03;;;;;;;;;;5077979;28;20201;-33
2023/01/31 11:11:17;;;;;;;3.37;1.90;;;;;;;;;;5067453;28;20228;-31
2023/01/31 11:13:55;;;;;;;7.07;1.97;;;;;;;;;;5076708;28;20215;-28
2023/01/31 11:16:23;;;;;;;9.17;2.03;;;;;;;;;;5062596;28;20204;-27
2023/01/31 11:18:51;;;;;;;4.93;2.27;;;;;;;;;;5058849;28;20217;-30
2023/01/31 11:21:20;;;;;;;4.00;2.37;;;;;;;;;;5084950;28;20255;-29
2023/01/31 11:23:47;;;;;;;2.63;1.93;;;;;;;;;;5086915;28;20202;-30
2023/01/31 11:26:25;;;;;;;10.83;2.40;;;;;;;;;;5064005;28;20204;-32
2023/01/31 11:28:53;;;;;;;5.13;1.90;;;;;;;;;;5081830;28;20246;-26
2023/01/31 11:31:23;;;;;;;6.33;2.00;;;;;;;;;;5072381;28;20217;-28
2023/01/31 11:33:57;;;;;;;7.77;2.53;;;;;;;;;;5069014;28;20259;-28
2023/01/31 11:36:25;;;;;;;3.65;1.25;;;;;;;;;;5074419;28;20200;-29
2023/01/31 11:38:53;;;;;;;12.27;2.00;;;;;;;;;;5080068;28;20456;-33
2023/01/31 11:41:32;;;;;;;5.23;1.63;;;;;;;;;;5072080;28;20232;-32
2023/01/31 11:44:11;;;;;;;4.33;1.50;;;;;;;;;;5075410;28;20558;-29
2023/01/31 11:46:41;;;;;;;5.53;1.93;;;;;;;;;;5067034;28;20201;-27
2023/01/31 11:49:11;;;;;;;4.43;1.73;;;;;;;;;;5066507;28;20221;-30
2023/01/31 11:51:39;;;;;;;4.30;2.07;;;;;;;;;;5076909;28;20228;-29
2023/01/31 11:54:07;;;;;;;5.93;1.70;;;;;;;;;;5091388;28;20207;-28
2023/01/31 11:56:37;;;;;;;2.77;1.43;;;;;;;;;;5071115;28;20208;-34
2023/01/31 11:59:08;;;;;;;5.77;1.60;;;;;;;;;;5066606;28;20210;-29
2023/01/31 12:01:36;;;;;;;4.37;1.77;;;;;;;;;;5063402;28;20229;-31
2023/01/31 12:04:05;;;;;;;3.77;1.57;;;;;;;;;;5070409;28;20210;-32
2023/01/31 12:06:34;;;;;;;2.47;1.20;;;;;;;;;;5077050;28;20194;-32
2023/01/31 12:09:02;;;;;;;5.03;1.70;;;;;;;;;;5057740;28;20194;-31
2023/01/31 12:11:30;;;;;;;5.40;1.60;;;;;;;;;;5057887;28;20225;-28
2023/01/31 12:14:03;;;;;;;4.63;1.83;;;;;;;;;;5075052;28;20208;-30
2023/01/31 12:16:31;;;;;;;5.37;1.70;;;;;;;;;;5075579;28;20194;-29
2023/01/31 12:19:05;;;;;;;2.90;2.10;;;;;;;;;;5054142;28;20618;-31
2023/01/31 12:21:38;;;;;;;5.00;1.73;;;;;;;;;;5077946;28;20588;-32
2023/01/31 12:24:10;;;;;;;2.60;1.30;;;;;;;;;;5080715;28;20658;-31
2023/01/31 12:26:44;;;;;;;3.70;1.20;;;;;;;;;;5068759;28;20193;-30
2023/01/31 12:29:24;;;;;;;2.40;1.50;;;;;;;;;;5086627;28;20196;-30
2023/01/31 12:32:03;;;;;;;2.73;1.10;;;;;;;;;;5087276;28;20217;-28
2023/01/31 12:34:38;;;;;;;5.10;1.60;;;;;;;;;;5052430;28;20194;-30
2023/01/31 12:37:13;;;;;;;5.17;1.73;;;;;;;;;;5067846;28;20213;-30
2023/01/31 12:39:48;;;;;;;3.63;1.70;;;;;;;;;;5091689;28;20188;-30
2023/01/31 12:42:23;;;;;;;1.60;1.20;;;;;;;;;;5069668;28;20224;-34
2023/01/31 12:44:53;;;;;;;4.20;1.63;;;;;;;;;;5068704;28;20204;-31
2023/01/31 12:47:32;;;;;;;2.50;1.47;;;;;;;;;;5064645;28;20210;-30
2023/01/31 12:50:04;;;;;;;5.20;1.83;;;;;;;;;;5071109;28;20190;-28
2023/01/31 12:52:36;;;;;;;3.40;1.67;;;;;;;;;;5064908;28;20236;-31
2023/01/31 12:55:10;;;;;;;4.77;1.50;;;;;;;;;;5058873;28;20214;-29
2023/01/31 12:57:41;;;;;;;2.93;1.10;;;;;;;;;;5068853;28;20215;-32
2023/01/31 13:00:18;;;;;;;3.83;2.03;;;;;;;;;;5076533;28;20680;-27
2023/01/31 13:02:49;;;;;;;2.63;1.43;;;;;;;;;;5063169;28;20205;-30
2023/01/31 13:05:25;;;;;;;3.37;1.23;;;;;;;;;;5067279;28;20203;-27
2023/01/31 13:07:54;;;;;;;2.30;0.93;;;;;;;;;;5065519;28;20201;-28
2023/01/31 13:10:27;;;;;;;2.43;0.87;;;;;;;;;;5052691;28;20206;-28
2023/01/31 13:12:55;;;;;;;3.27;1.07;;;;;;;;;;5066812;28;20409;-31
2023/01/31 13:15:28;;;;;;;1.27;0.73;;;;;;;;;;5081642;28;20196;-31
2023/01/31 13:17:57;;;;;;;3.10;1.20;;;;;;;;;;5062633;28;20214;-33
2023/01/31 13:20:28;;;;;;;5.93;1.57;;;;;;;;;;5063853;28;20212;-27
2023/01/31 13:22:56;;;;;;;3.03;1.97;;;;;;;;;;5066952;28;20201;-33
2023/01/31 13:25:25;;;;;;;2.17;1.17;;;;;;;;;;5080278;28;20202;-29
2023/01/31 13:27:57;;;;;;;1.83;1.13;;;;;;;;;;5078412;28;20201;-29
2023/01/31 13:30:29;;;;;;;3.40;1.67;;;;;;;;;;5082755;28;20618;-28
2023/01/31 13:32:56;;;;;;;2.37;1.80;;;;;;;;;;5049976;28;20202;-31
2023/01/31 13:35:42;;;;;;;3.13;1.63;;;;;;;;;;5057150;28;20201;-30
2023/01/31 13:38:14;;;;;;;3.60;1.47;;;;;;;;;;5076321;28;20304;-32
2023/01/31 13:40:48;;;;;;;1.57;1.40;;;;;;;;;;5065876;28;20234;-31
2023/01/31 13:43:16;;;;;;;4.20;1.30;;;;;;;;;;5071624;28;20211;-27
2023/01/31 13:45:51;;;;;;;1.60;1.07;;;;;;;;;;5066713;28;20208;-30
2023/01/31 13:48:23;;;;;;;3.13;1.97;;;;;;;;;;5055321;28;20197;-30
2023/01/31 13:50:52;;;;;;;4.40;1.90;;;;;;;;;;5055265;28;20226;-27
2023/01/31 13:53:22;;;;;;;2.93;1.83;;;;;;;;;;5078050;28;20201;-29
2023/01/31 13:55:50;;;;;;;3.23;2.00;;;;;;;;;;5068068;28;20221;-27
2023/01/31 13:58:20;;;;;;;3.00;1.70;;;;;;;;;;5079225;28;20298;-31
2023/01/31 14:01:18;;;;;;;4.27;1.60;;;;;;;;;;5079058;28;20221;-27
2023/01/31 14:04:04;;;;;;;2.80;2.03;;;;;;;;;;5066117;28;20197;-31
2023/01/31 14:06:45;;;;;;;3.37;1.73;;;;;;;;;;5070879;28;20200;-30
2023/01/31 14:09:24;;;;;;;2.63;1.20;;;;;;;;;;5066566;28;20576;-25
2023/01/31 14:11:51;;;;;;;5.23;1.63;;;;;;;;;;5063026;28;20252;-25
2023/01/31 14:14:20;;;;;;;5.30;1.93;;;;;;;;;;5090794;28;20193;-27
2023/01/31 14:16:48;;;;;;;8.53;2.03;;;;;;;;;;5057426;28;20204;-27
2023/01/31 14:19:45;;;;;;;3.17;1.43;;;;;;;;;;5056058;28;20222;-29
2023/01/31 14:22:15;;;;;;;5.17;2.17;;;;;;;;;;4980146;28;20235;-27
2023/01/31 14:25:03;;;;;;;3.30;1.43;;;;;;;;;;5047225;28;20204;-30
2023/01/31 14:27:34;;;;;;;3.97;1.80;;;;;;;;;;5068937;28;20655;-26
2023/01/31 14:30:09;;;;;;;2.73;1.73;;;;;;;;;;5070116;28;20197;-27
2023/01/31 14:32:39;;;;;;;3.10;2.10;;;;;;;;;;5057802;28;20221;-30
2023/01/31 14:35:10;;;;;;;8.13;2.17;;;;;;;;;;5066349;28;20205;-28
2023/01/31 14:37:41;;;;;;;4.03;1.73;;;;;;;;;;5069336;28;20212;-27
2023/01/31 14:40:16;;;;;;;2.57;1.30;;;;;;;;;;5077910;28;20386;-28
2023/01/31 14:42:58;;;;;;;4.87;2.17;;;;;;;;;;5072813;28;20193;-27
2023/01/31 14:45:37;;;;;;;2.97;1.80;;;;;;;;;;5069741;28;20422;-27
2023/01/31 14:48:15;;;;;;;4.50;2.03;;;;;;;;;;5057097;28;20193;-32
2023/01/31 14:50:48;;;;;;;4.53;2.20;;;;;;;;;;5057780;28;20235;-28
2023/01/31 14:53:30;;;;;;;6.77;1.53;;;;;;;;;;5062561;28;20197;-29
2023/01/31 14:56:05;;;;;;;4.77;1.80;;;;;;;;;;5057378;28;20554;-28
2023/01/31 14:58:33;;;;;;;3.67;2.20;;;;;;;;;;5057653;28;20250;-29
2023/01/31 15:01:04;;;;;;;4.73;2.10;;;;;;;;;;5060850;28;20452;-26
2023/01/31 15:03:34;;;;;;;3.90;2.20;;;;;;;;;;5049620;28;20216;-27